• Join FlightAware (Why Join?)
  • Login
  • US Flag 
02:06PM EDT


 

Airport Tracker/Info


-or-


 

Live Flight TrackerFlight Track Log ✈ DAL268 ✈ 04-Oct-2013 ✈ KSFO - KJFK

Flight Track Log - Related Links

Times and Time Zones

All times are in EDT time to prevent confusion due to time zone crossing. See the DAL268 flight status page for this flight to view local times or setup timezone preferences in your user account.

Time Position Orientation Groundspeed Altitude Reporting Facility
EDT Latitude Longitude Course Direction KTS MPH feet Rate Location/Type
02:28PM 37.6667 -122.3167 67° East 202 232 2,700  Level Northern Cal TRACON
02:29PM 37.7167 -122.2500 47° Northeast 259 298 5,300 2,580 Climbing Northern Cal TRACON
02:30PM 37.6861 -122.1249 67° East  Level FlightAware Approximate
02:31PM 37.7437 -121.9716 65° Northeast  Level FlightAware Approximate
02:31PM 37.7761 -122.0958 64° Northeast 271 312 10,500  Level Oakland Center
02:32PM 37.7998 -121.8172 65° Northeast  Level FlightAware Approximate
02:32PM 37.8061 -121.9886 70° East 319 367 11,700  Level Oakland Center
02:33PM 37.8469 -121.6593 67° East  Level FlightAware Approximate
02:33PM 37.8386 -121.8717 71° East 352 405 14,000  Level Oakland Center
02:34PM 37.8733 -121.7442 71° East 380 437 15,900 1,800 Climbing Oakland Center
02:35PM 37.9103 -121.6125 70° East 396 456 17,800 1,920 Climbing Oakland Center
02:36PM 37.9514 -121.4614 71° East 406 467 19,900 1,800 Climbing Oakland Center
02:37PM 37.9892 -121.3219 71° East 417 480 21,600 1,560 Climbing Oakland Center
02:38PM 38.0272 -121.1783 71° East 431 496 23,100 1,560 Climbing Oakland Center
02:39PM 38.0764 -120.9992 71° East 452 520 24,800 1,500 Climbing Oakland Center
02:40PM 38.1128 -120.8447 73° East 460 529 26,300 1,260 Climbing Oakland Center
02:41PM 38.1497 -120.6867 73° East 469 540 27,500 1,200 Climbing Oakland Center
02:42PM 38.1883 -120.5267 73° East 477 549 28,800 720 Climbing Oakland Center
02:43PM 38.2261 -120.3647 73° East 478 550 29,000 60 Climbing Oakland Center
02:44PM 38.2642 -120.2047 73° East 475 547 29,000  Level Oakland Center
02:45PM 38.3050 -120.0408 72° East 485 558 29,000  Level Oakland Center
02:46PM 38.3500 -119.8450 74° East 481 554 29,000  Level Oakland Center
02:47PM 38.3869 -119.6842 74° East 477 549 29,000  Level Oakland Center
02:48PM 38.4206 -119.5375 74° East 470 541 29,000  Level Oakland Center
02:49PM 38.4558 -119.3806 74° East 465 535 29,000  Level Oakland Center
02:50PM 38.4986 -119.1867 74° East 475 547 29,000  Level Oakland Center
02:51PM 38.5189 -119.0150 81° East 491 565 29,000  Level Oakland Center
02:52PM 38.5358 -118.8458 83° East 486 559 29,000  Level Oakland Center
02:53PM 38.5531 -118.6742 83° East 489 563 29,000  Level Oakland Center
02:54PM 38.5686 -118.5067 83° East 481 554 29,000  Level Oakland Center
02:55PM 38.5856 -118.3442 82° East 468 539 29,000  Level Oakland Center
02:57PM 38.6003 -118.1794 83° East 469 540 29,000  Level Oakland Center
02:58PM 38.6186 -117.9825 83° East 468 539 29,000  Level Oakland Center
02:59PM 38.6339 -117.8206 83° East 462 532 29,000  Level Oakland Center
03:00PM 38.6478 -117.6572 84° East 459 528 29,000  Level Oakland Center
03:01PM 38.6619 -117.4953 84° East 457 526 29,000  Level Oakland Center
03:02PM 38.6758 -117.3353 84° East 451 519 29,000  Level Oakland Center
03:03PM 38.6978 -117.1742 80° East 455 524 29,000  Level Oakland Center
03:04PM 38.7214 -117.0094 80° East 464 534 29,000  Level Oakland Center
03:05PM 38.7461 -116.8453 79° East 466 536 29,000  Level Oakland Center
03:06PM 38.7708 -116.6778 79° East 474 545 29,000  Level Oakland Center
03:07PM 38.7967 -116.5042 79° East 489 563 29,000  Level Oakland Center
03:08PM 38.8261 -116.2947 80° East 496 571 29,000  Level Oakland Center
03:09PM 38.8492 -116.1236 80° East 490 564 29,000  Level Oakland Center
03:10PM 38.8822 -115.8914 80° East 474 545 29,000  Level Salt Lake Center
03:11PM 38.9053 -115.7253 80° East 472 543 29,000  Level Salt Lake Center
03:12PM 38.9294 -115.5589 79° East 474 545 29,000  Level Salt Lake Center
03:13PM 38.9503 -115.3922 81° East 473 544 29,000  Level Salt Lake Center
03:14PM 38.9764 -115.2106 79° East 482 555 29,000  Level Salt Lake Center
03:15PM 38.9992 -115.0381 80° East 487 560 29,000  Level Salt Lake Center
03:16PM 39.0214 -114.8639 81° East 492 566 29,000  Level Salt Lake Center
03:17PM 39.0500 -114.6511 80° East 502 578 29,000  Level Salt Lake Center
03:19PM 39.0728 -114.4731 81° East 504 580 29,000  Level Salt Lake Center
03:20PM 39.0950 -114.2961 81° East 503 579 29,000  Level Salt Lake Center
03:21PM 39.1167 -114.1178 81° East 505 581 29,000  Level Salt Lake Center
03:22PM 39.1386 -113.9383 81° East 507 583 29,000  Level Salt Lake Center
03:23PM 39.1600 -113.7589 81° East 508 585 29,000  Level Salt Lake Center
03:24PM 39.1806 -113.5831 81° East 500 575 29,000  Level Salt Lake Center
03:25PM 39.2058 -113.3725 81° East 497 572 29,000  Level Salt Lake Center
03:26PM 39.2258 -113.1961 82° East 498 573 29,000  Level Salt Lake Center
03:27PM 39.2458 -113.0214 82° East 495 570 29,000  Level Salt Lake Center
03:28PM 39.2656 -112.8458 82° East 495 570 29,000  Level Salt Lake Center
03:29PM 39.2839 -112.6681 82° East 497 572 29,000  Level Salt Lake Center
03:30PM 39.3086 -112.4733 81° East 501 577 29,100 780 Climbing Salt Lake Center
03:31PM 39.3411 -112.2953 77° East 508 585 30,600 1,260 Climbing Salt Lake Center
03:32PM 39.3744 -112.1183 76° East 512 589 31,800 1,140 Climbing Salt Lake Center
03:33PM 39.4081 -111.9397 76° East 514 592 33,000 1,020 Climbing Salt Lake Center
03:34PM 39.4406 -111.7606 77° East 515 593 34,000 960 Climbing Salt Lake Center
03:35PM 39.4800 -111.5456 77° East 514 592 35,100 960 Climbing Salt Lake Center
03:36PM 39.5117 -111.3639 77° East 519 597 36,000 900 Climbing Salt Lake Center
03:37PM 39.5461 -111.1750 77° East 515 593 37,000 480 Climbing Salt Lake Center
03:38PM 39.5756 -111.0056 77° East 507 583 37,000  Level Salt Lake Center
03:39PM 39.6106 -110.8053 77° East 510 587 37,000  Level Salt Lake Center
03:40PM 39.6408 -110.6308 77° East 516 594 37,000  Level Salt Lake Center
03:41PM 39.6747 -110.4275 78° East 518 596 37,000  Level Salt Lake Center
03:42PM 39.7036 -110.2539 78° East 516 594 37,000  Level Salt Lake Center
03:43PM 39.7319 -110.0800 78° East 516 594 37,000  Level Salt Lake Center
03:44PM 39.7656 -109.8769 78° East 515 593 37,000  Level Salt Lake Center
03:45PM 39.7939 -109.7031 78° East 514 592 37,000  Level Salt Lake Center
03:46PM 39.8219 -109.5269 78° East 514 592 37,000  Level Denver Center
03:47PM 39.8542 -109.3239 78° East 513 590 37,000  Level Denver Center
03:48PM 39.8817 -109.1503 78° East 510 587 37,000  Level Denver Center
03:49PM 39.9136 -108.9461 78° East 512 589 37,000  Level Denver Center
03:50PM 39.9411 -108.7711 78° East 510 587 37,000  Level Denver Center
03:51PM 39.9678 -108.5944 79° East 514 592 37,000  Level Denver Center
03:52PM 39.9983 -108.3903 79° East 512 589 37,000  Level Denver Center
03:54PM 40.0256 -108.2144 79° East 513 590 37,000  Level Denver Center
03:55PM 40.0547 -108.0094 79° East 514 592 37,000  Level Denver Center
03:56PM 40.0872 -107.8356 76° East 514 592 37,000  Level Denver Center
03:57PM 40.1336 -107.6364 73° East 515 593 37,000  Level Denver Center
03:58PM 40.1739 -107.4642 73° East 516 594 37,000  Level Denver Center
03:59PM 40.2189 -107.2631 74° East 518 596 37,000  Level Denver Center
04:00PM 40.2583 -107.0903 73° East 518 596 37,000  Level Denver Center
04:01PM 40.2961 -106.9175 74° East 518 596 37,000  Level Denver Center
04:02PM 40.3436 -106.7169 73° East 519 597 37,000  Level Denver Center
04:03PM 40.3833 -106.5311 74° East 524 603 37,000  Level Denver Center
04:04PM 40.4272 -106.3353 74° East 523 602 37,000  Level Denver Center
04:05PM 40.4636 -106.1606 75° East 519 597 37,000  Level Denver Center
04:06PM 40.5089 -105.9503 74° East 525 604 37,000  Level Denver Center
04:07PM 40.5472 -105.7678 74° East 519 597 37,000  Level Denver Center
04:08PM 40.5861 -105.5814 75° East 526 605 37,000  Level Denver Center
04:09PM 40.6236 -105.3972 75° East 521 600 37,000  Level Denver Center
04:10PM 40.6625 -105.2106 75° East 526 605 37,000  Level Denver Center
04:11PM 40.7008 -105.0250 75° East 524 603 37,000  Level Denver Center
04:12PM 40.7389 -104.8381 75° East 527 606 37,000  Level Denver Center
04:13PM 40.7831 -104.6144 75° East 525 604 37,000  Level Denver Center
04:14PM 40.8211 -104.4247 75° East 533 613 37,000  Level Denver Center
04:15PM 40.8581 -104.2367 75° East 529 609 37,000  Level Denver Center
04:16PM 40.8939 -104.0500 76° East 526 605 37,000  Level Denver Center
04:17PM 40.9306 -103.8614 76° East 529 609 37,000  Level Denver Center
04:18PM 40.9672 -103.6725 76° East 530 610 37,000  Level Denver Center
04:19PM 41.0050 -103.4694 76° East 529 609 37,000  Level Denver Center
04:20PM 41.0856 -103.2733 61° Northeast 546 628 37,000  Level Denver Center
04:21PM 41.1542 -103.1053 61° Northeast 545 627 37,000 480 Level Denver Center
04:22PM 41.2358 -102.9108 61° Northeast 542 624 38,100 780 Climbing Denver Center
04:23PM 41.3078 -102.7453 60° Northeast 541 623 38,600 420 Climbing Denver Center
04:24PM 41.3864 -102.5619 60° Northeast 543 625 39,000 180 Climbing Denver Center
04:26PM 41.4583 -102.3933 60° Northeast 546 628 39,000  Level Denver Center
04:27PM 41.5314 -102.1892 64° Northeast 544 626 39,000  Level Denver Center
04:28PM 41.5747 -102.0031 73° East 546 628 39,000  Level Denver Center
04:29PM 41.6242 -101.7903 73° East 538 619 39,000  Level Denver Center
04:30PM 41.6672 -101.6083 72° East 537 618 39,000  Level Denver Center
04:31PM 41.7211 -101.3944 71° East 540 621 39,000  Level Denver Center
04:32PM 41.7672 -101.2083 72° East 546 628 39,000  Level Denver Center
04:33PM 41.8203 -100.9900 72° East 549 632 39,000  Level Denver Center
04:34PM 41.8664 -100.8011 72° East 553 636 39,000  Level Denver Center
04:35PM 41.9133 -100.6153 71° East 550 633 39,000  Level Denver Center
04:36PM 41.9689 -100.3997 71° East 547 629 39,000  Level Denver Center
04:37PM 42.0169 -100.2214 70° East 532 612 39,000  Level Denver Center
04:38PM 42.0767 -100.0217 68° East 519 597 39,000  Level Denver Center
04:39PM 42.1317 -99.8514 66° East 517 595 39,000  Level Denver Center
04:40PM 42.2011 -99.6558 64° Northeast 524 603 39,000  Level Denver Center
04:41PM 42.2731 -99.4794 61° Northeast 532 612 39,000  Level Denver Center
04:42PM 42.3553 -99.3108 57° Northeast 535 616 39,000  Level Denver Center
04:43PM 42.4439 -99.1428 54° Northeast 544 626 39,000  Level Denver Center
04:44PM 42.5300 -98.9822 54° Northeast 531 611 39,000  Level Denver Center
04:45PM 42.6483 -98.7569 54° Northeast 525 604 39,000  Level Minneapolis Center
04:46PM 42.7336 -98.5964 54° Northeast 524 603 39,000  Level Minneapolis Center
04:48PM 42.8183 -98.4306 55° Northeast 529 609 39,000  Level Minneapolis Center
04:49PM 42.9103 -98.2533 55° Northeast 537 618 39,000  Level Minneapolis Center
04:50PM 42.9958 -98.0856 55° Northeast 538 619 39,000  Level Minneapolis Center
04:51PM 43.0822 -97.9178 55° Northeast 540 621 39,000  Level Minneapolis Center
04:52PM 43.1844 -97.7142 55° Northeast 542 624 39,000  Level Minneapolis Center
04:53PM 43.2689 -97.5436 56° Northeast 543 625 39,000  Level Minneapolis Center
04:54PM 43.3536 -97.3753 55° Northeast 540 621 39,000  Level Minneapolis Center
04:55PM 43.4381 -97.2072 55° Northeast 537 618 39,000  Level Minneapolis Center
04:56PM 43.5219 -97.0369 56° Northeast 539 620 39,000  Level Minneapolis Center
04:57PM 43.6061 -96.8672 56° Northeast 539 620 39,000  Level Minneapolis Center
04:58PM 43.7056 -96.6639 56° Northeast 535 616 39,000  Level Minneapolis Center
04:59PM 43.7828 -96.4903 58° Northeast 533 613 39,000  Level Minneapolis Center
05:00PM 43.8606 -96.3200 58° Northeast 532 612 39,000  Level Minneapolis Center
05:01PM 43.9389 -96.1486 58° Northeast 532 612 39,000  Level Minneapolis Center
05:02PM 44.0336 -95.9442 57° Northeast 535 616 39,000  Level Minneapolis Center
05:03PM 44.1117 -95.7731 58° Northeast 534 615 39,000  Level Minneapolis Center
05:04PM 44.1853 -95.5981 60° Northeast 532 612 39,000  Level Minneapolis Center
05:05PM 44.2031 -95.3972 83° East 526 605 39,000  Level Minneapolis Center
05:06PM 44.1814 -95.2017 99° East 513 590 39,000  Level Minneapolis Center
05:07PM 44.1617 -95.0056 98° East 512 589 39,000  Level Minneapolis Center
05:08PM 44.1344 -94.7703 99° East 514 592 39,000  Level Minneapolis Center
05:09PM 44.1192 -94.6011 97° East 512 589 39,000  Level Minneapolis Center
05:10PM 44.0975 -94.4056 99° East 513 590 39,000  Level Minneapolis Center
05:11PM 44.0711 -94.1700 99° East 516 594 39,000  Level Minneapolis Center
05:12PM 44.0500 -93.9725 98° East 519 597 39,000  Level Minneapolis Center
05:13PM 44.0272 -93.7764 99° East 519 597 39,000  Level Minneapolis Center
05:14PM 44.0044 -93.5797 99° East 520 598 39,000  Level Minneapolis Center
05:15PM 43.9844 -93.3831 98° East 519 597 39,000  Level Minneapolis Center
05:16PM 43.9603 -93.1467 98° East 520 598 39,000  Level Minneapolis Center
05:17PM 43.9383 -92.9500 99° East 520 598 39,000  Level Minneapolis Center
05:18PM 43.9178 -92.7544 98° East 518 596 39,000  Level Minneapolis Center
05:20PM 43.8961 -92.5556 99° East 523 602 39,000  Level Minneapolis Center
05:21PM 43.8739 -92.3592 99° East 520 598 39,000  Level Minneapolis Center
05:22PM 43.8472 -92.1211 99° East 523 602 39,000  Level Minneapolis Center
05:23PM 43.8239 -91.9225 99° East 526 605 39,000  Level Minneapolis Center
05:24PM 43.8014 -91.7233 99° East 525 604 39,000  Level Minneapolis Center
05:25PM 43.7792 -91.5356 99° East 531 611 39,000  Level Minneapolis Center
05:26PM 43.7408 -91.2225 100° East 525 604 39,000  Level Chicago Center
05:27PM 43.7172 -91.0267 99° East 521 600 39,000  Level Chicago Center
05:28PM 43.6886 -90.7900 99° East 521 600 39,000  Level Chicago Center
05:29PM 43.6650 -90.5939 99° East 520 598 39,000  Level Chicago Center
05:30PM 43.6400 -90.3950 100° East 525 604 39,000  Level Chicago Center
05:31PM 43.6139 -90.2036 101° East 525 604 39,000  Level Chicago Center
05:32PM 43.5844 -89.9650 100° East 527 606 39,000  Level Chicago Center
05:34PM 43.5578 -89.7664 100° East 528 608 39,000  Level Chicago Center
05:35PM 43.5303 -89.5675 101° East 528 608 39,000  Level Chicago Center
05:36PM 43.5039 -89.3689 100° East 528 608 39,000  Level Chicago Center
05:37PM 43.4756 -89.1703 101° East 530 610 39,000  Level Chicago Center
05:38PM 43.4425 -88.9314 101° East 531 611 39,000  Level Chicago Center
05:39PM 43.4136 -88.7356 101° East 528 608 39,000  Level Chicago Center
05:40PM 43.3869 -88.5458 101° East 542 624 39,000  Level Chicago Center
05:41PM 43.3569 -88.3483 102° East 537 618 39,000  Level Chicago Center
05:42PM 43.3228 -88.1133 101° East 531 611 39,000  Level Chicago Center
05:43PM 43.2939 -87.9175 101° East 527 606 39,000  Level Chicago Center
05:44PM 43.2644 -87.7211 102° East 528 608 39,000  Level Chicago Center
05:45PM 43.2342 -87.5247 102° East 529 609 39,000  Level Chicago Center
05:46PM 43.2006 -87.3108 102° East 532 612 39,000  Level Chicago Center
05:47PM 43.1703 -87.1142 102° East 530 610 39,000  Level Chicago Center
05:48PM 43.1389 -86.9189 102° East 528 608 39,000  Level Chicago Center
05:49PM 43.1081 -86.7214 102° East 531 611 39,000  Level Chicago Center
05:50PM 43.0697 -86.4883 103° East 526 605 39,000  Level Chicago Center
05:51PM 43.0375 -86.2942 103° East 526 605 39,000  Level Chicago Center
05:52PM 43.0028 -86.0917 103° East 527 606 39,000  Level Chicago Center
05:53PM 42.9689 -85.8772 102° East 532 612 39,000  Level Chicago Center
05:54PM 42.9339 -85.6808 104° East 537 618 39,000  Level Chicago Center
05:55PM 42.9006 -85.4847 103° East 536 617 39,000  Level Chicago Center
05:56PM 42.8667 -85.2892 103° East 534 615 39,000  Level Chicago Center
05:57PM 42.8319 -85.0931 104° East 533 613 39,000  Level Chicago Center
05:58PM 42.7978 -84.8978 103° East 533 613 39,000  Level Chicago Center
05:59PM 42.7547 -84.6636 104° East 533 613 39,000  Level Chicago Center
06:00PM 42.7192 -84.4694 104° East 532 612 39,000  Level Chicago Center
06:02PM 42.6794 -84.2519 104° East 534 615 39,000  Level Cleveland Center
06:03PM 42.6433 -84.0594 104° East 529 609 39,000  Level Cleveland Center
06:04PM 42.6056 -83.8653 105° East 531 611 39,000  Level Cleveland Center
06:05PM 42.5697 -83.6719 104° East 527 606 39,000  Level Cleveland Center
06:06PM 42.5314 -83.4783 105° East 526 605 39,000  Level Cleveland Center
06:07PM 42.4858 -83.2442 105° East 527 606 39,000  Level Cleveland Center
06:08PM 42.4469 -83.0514 105° East 525 604 39,000  Level Cleveland Center
06:09PM 42.4092 -82.8583 105° East 528 608 39,000  Level Cleveland Center
06:10PM 42.3753 -82.6650 103° East 528 608 39,000  Level Cleveland Center
06:11PM 42.3675 -82.4642 93° East 535 616 39,000  Level Cleveland Center
06:12PM 42.3600 -82.2667 93° East 530 610 39,000  Level Cleveland Center
06:13PM 42.3514 -82.0506 93° East 530 610 39,000  Level Cleveland Center
06:14PM 42.3425 -81.8453 93° East 537 618 39,000  Level Cleveland Center
06:15PM 42.3333 -81.6458 93° East 530 610 39,000  Level Cleveland Center
06:16PM 42.3239 -81.4428 94° East 533 613 39,000  Level Cleveland Center
06:17PM 42.3125 -81.2094 94° East 529 609 39,000  Level Cleveland Center
06:18PM 42.3014 -81.0081 94° East 532 612 39,000  Level Cleveland Center
06:19PM 42.2911 -80.8081 94° East 530 610 39,000  Level Cleveland Center
06:20PM 42.2822 -80.6117 93° East 522 601 39,000  Level Cleveland Center
06:21PM 42.2617 -80.4125 98° East 527 606 39,000  Level Cleveland Center
06:22PM 42.2339 -80.2136 101° East 534 615 39,000  Level Cleveland Center
06:23PM 42.2056 -80.0161 101° East 533 613 39,000  Level Cleveland Center
06:24PM 42.1731 -79.7983 101° East 528 608 39,000  Level Cleveland Center
06:25PM 42.1436 -79.6050 102° East 531 611 39,000  Level Cleveland Center
06:26PM 42.1139 -79.4111 102° East 531 611 39,000  Level Cleveland Center
06:27PM 42.0842 -79.2133 101° East 539 620 39,000  Level Cleveland Center
06:28PM 42.0475 -78.9781 102° East 538 619 39,000  Level Cleveland Center
06:29PM 42.0175 -78.7858 102° East 531 611 39,000  Level Cleveland Center
06:31PM 41.9869 -78.5925 102° East 531 611 39,000  Level Cleveland Center
06:32PM 41.9558 -78.3992 102° East 530 610 39,000  Level Cleveland Center
06:33PM 41.9242 -78.2064 102° East 531 611 39,000  Level Cleveland Center
06:34PM 41.8925 -78.0158 103° East 527 606 39,000  Level Cleveland Center
06:35PM 41.8486 -77.7894 105° East 526 605 39,000  Level Cleveland Center
06:35PM 41.8200 -77.6872 111° Southeast 528 608 39,000  Level New York Center
06:36PM 41.7700 -77.5042 110° East 528 608 39,000  Level New York Center
06:37PM 41.7219 -77.3214 109° East 528 608 39,000 -360 Level New York Center
06:38PM 41.6733 -77.1417 110° East 520 598 38,300 -1,380 Descending New York Center
06:39PM 41.6247 -76.9567 109° East 520 598 36,200 -2,040 Descending New York Center
06:40PM 41.5778 -76.7775 109° East 520 598 34,200 -2,580 Descending New York Center
06:41PM 41.5247 -76.5897 111° Southeast 505 581 31,200 -3,000 Descending New York Center
06:42PM 41.4789 -76.4169 109° East 499 574 28,300 -1,620 Descending New York Center
06:43PM 41.4289 -76.2383 110° East 505 581 28,000 -180 Descending New York Center
06:44PM 41.3839 -76.0800 111° Southeast 505 581 28,000  Level New York Center
06:45PM 41.3369 -75.9186 111° Southeast 493 567 28,000  Level New York Center
06:46PM 41.2881 -75.7492 111° Southeast 488 562 28,000 -840 Level New York Center
06:47PM 41.2347 -75.5769 112° Southeast 488 562 26,400 -1,980 Descending New York Center
06:48PM 41.1808 -75.4133 114° Southeast 486 559 24,100 -1,740 Descending New York Center
06:49PM 41.1264 -75.2581 115° Southeast 470 541 23,000 -600 Descending New York Center
06:50PM 41.0758 -75.1033 113° Southeast 464 534 23,000  Level New York Center
06:51PM 41.0231 -74.9486 114° Southeast 459 528 23,000 -60 Level New York Center
06:52PM 40.9869 -74.7925 107° East 454 522 22,900 -480 Descending New York Center
06:53PM 40.9694 -74.6322 98° East 448 516 22,100 -1,440 Descending New York Center
06:54PM 40.9536 -74.4719 97° East 437 503 20,100 -1,500 Descending New York Center
06:55PM 40.9375 -74.3228 98° East 422 486 19,100 -480 Descending New York Center
06:57PM 40.9000 -74.1167 103° East 381 438 19,000 -660 Descending New York TRACON
06:58PM 40.8000 -74.0333 148° Southeast 356 410 17,500 -1,440 Descending New York TRACON
06:59PM 40.7167 -73.9833 156° South 344 396 16,100 -1,440 Descending New York TRACON
07:00PM 40.6333 -73.9333 156° South 342 394 14,700 -1,320 Descending New York TRACON
07:01PM 40.5833 -73.8500 128° Southeast 334 384 13,700 -1,020 Descending New York TRACON
07:02PM 40.5500 -73.7500 114° Southeast 336 387 12,800 -1,680 Descending New York TRACON
07:03PM 40.5167 -73.6333 111° Southeast 308 354 10,200 -2,460 Descending New York TRACON
07:04PM 40.5167 -73.5333 90° East 297 342 7,900 -2,460 Descending New York TRACON
07:05PM 40.5833 -73.4667 37° Northeast 274 315 5,600 -1,500 Descending New York TRACON
07:06PM 40.6500 -73.4167 30° Northeast 276 318 5,000 -360 Descending New York TRACON
07:07PM 40.7167 -73.4167 360° North 255 293 5,000 -180 Level New York TRACON
07:08PM 40.7833 -73.4333 349° North 229 264 4,700 -660 Descending New York TRACON
07:09PM 40.8167 -73.5000 303° West 221 254 3,700 -960 Descending New York TRACON
07:10PM 40.8500 -73.5667 303° West 202 232 2,800 -900 Descending New York TRACON
07:11PM 40.8167 -73.6167 229° Southwest 183 211 2,000 -420 Descending New York TRACON
07:12PM 40.7833 -73.6500 217° Southwest 188 216 2,000 -60 Level New York TRACON
07:13PM 40.7333 -73.6833 207° Southwest 186 214 1,900 -480 Descending New York TRACON
07:14PM 40.7000 -73.7167 217° Southwest 145 167 1,100 -720 Descending New York TRACON
07:15PM 40.6667 -73.7500 217° Southwest 136 157 500 -600 Descending New York TRACON